CW4778 Auckland NZ current weather conditions

sailwx.info

Wind from 278 at 3 knots gusting 13

Air temperature 15.6° C
Dewpoint 15.2° C

Last reported at 2016-Dec-10 09:48 UTC.
Time now 2016-Dec-10 10:56 UTC

Location: S 36°52' E 174°44'.
View on Google Maps.

See reports from other nearby stations

  
Tides and Currents Weather Stations Pressure Air Temp Water Temp Dewpoint Dewpoint Depression Visibility Wind Speed Wind Dir Waves Ship Positions
date/time (UTC)wind fromknots sea level pressurealtimeterstation pressurevisibilityair tempwater tempwave heightnotes
2016-Dec-10 09:48 278 3 gusting 13 15.6
2016-Dec-10 09:38 315 10 gusting 17 15.6
2016-Dec-10 09:18 269 1 gusting 6 15.6
2016-Dec-10 09:08 240 2 gusting 6 15.6
2016-Dec-10 08:58 259 0 gusting 4 15.6
2016-Dec-10 08:48 308 1 gusting 2 15.6
2016-Dec-10 08:38 261 15.6
2016-Dec-10 08:28 277 15.6
2016-Dec-10 08:18 268 2 gusting 6 15.6
2016-Dec-10 08:08 267 4 gusting 6 15.6
2016-Dec-10 07:58 261 5 gusting 7 16.1
2016-Dec-10 07:48 334 2 gusting 5 15.6
2016-Dec-10 07:38 314 2 gusting 6 16.1
2016-Dec-10 07:28 275 4 gusting 6 16.1
2016-Dec-10 07:08 269 5 gusting 7 16.1
2016-Dec-10 06:58 345 16.1
2016-Dec-10 06:48 293 4 gusting 8 16.7
2016-Dec-10 06:38 281 1 gusting 7 16.7
2016-Dec-10 06:18 330 5 gusting 11 16.7
2016-Dec-10 05:38 322 4 gusting 7 17.8
2016-Dec-10 05:28 354 1 gusting 7 16.7
2016-Dec-10 05:18 020 3 gusting 8 16.7
2016-Dec-10 05:08 027 2 gusting 7 16.7
2016-Dec-10 04:58 022 5 gusting 7 16.7
2016-Dec-10 04:38 022 4 gusting 8 16.7
2016-Dec-10 04:28 020 6 gusting 7 16.7
2016-Dec-10 04:18 028 6 gusting 11 16.7
2016-Dec-10 04:08 030 6 gusting 11 17.2
2016-Dec-10 03:58 354 0 gusting 6 17.8
2016-Dec-10 03:38 316 4 gusting 6 17.8
2016-Dec-10 03:08 345 7 gusting 12 18.3
2016-Dec-10 02:48 338 2 gusting 7 18.9
2016-Dec-10 02:28 039 5 gusting 7 18.3
2016-Dec-10 01:58 008 2 gusting 5 19.4
2016-Dec-10 01:48 19.4
2016-Dec-10 01:28 035 5 gusting 8 19.4
2016-Dec-10 01:18 049 4 gusting 7 19.4
2016-Dec-10 00:28 048 3 gusting 6 20.6
2016-Dec-10 00:18 064 2 gusting 4 20.6
2016-Dec-10 00:08 060 4 gusting 8 20.0
2016-Dec-09 23:58 039 5 gusting 10 20.0
2016-Dec-09 23:48 015 4 gusting 8 20.0
2016-Dec-09 23:38 044 2 gusting 8 20.0
2016-Dec-09 23:18 013 5 gusting 12 20.0
2016-Dec-09 22:58 043 7 gusting 11 20.0
2016-Dec-09 22:48 037 7 gusting 13 20.0
2016-Dec-09 22:38 004 7 gusting 11 19.4
2016-Dec-09 22:28 020 7 gusting 13 20.0
2016-Dec-09 22:18 023 7 gusting 12 20.0
2016-Dec-09 22:08 351 6 gusting 13 20.0
2016-Dec-09 21:58 016 7 gusting 12 20.0
2016-Dec-09 21:48 042 6 gusting 12 20.0
2016-Dec-09 21:28 042 8 gusting 13 20.0
2016-Dec-09 21:08 041 7 gusting 12 20.6
2016-Dec-09 20:38 040 7 gusting 13 20.0
2016-Dec-09 20:28 015 5 gusting 12 20.0
2016-Dec-09 20:08 035 7 gusting 13 18.9
2016-Dec-09 19:58 017 6 gusting 11 18.9
2016-Dec-09 19:48 024 7 gusting 13 18.9
2016-Dec-09 19:38 036 6 gusting 12 18.9
2016-Dec-09 19:28 049 2 gusting 11 18.9
2016-Dec-09 19:18 039 5 gusting 10 18.9
2016-Dec-09 19:08 037 5 gusting 12 18.3
2016-Dec-09 18:58 056 2 gusting 10 18.3
2016-Dec-09 18:48 024 3 gusting 6 18.3
2016-Dec-09 18:28 050 6 gusting 8 18.3
2016-Dec-09 18:18 051 2 gusting 6 18.3
2016-Dec-09 18:08 060 4 gusting 7 18.3
2016-Dec-09 17:58 039 2 gusting 8 17.8
2016-Dec-09 17:48 054 4 gusting 7 17.8
2016-Dec-09 17:38 057 2 gusting 7 17.8
2016-Dec-09 17:18 057 6 gusting 11 17.8
2016-Dec-09 16:58 350 18.3
2016-Dec-09 16:38 022 18.3
2016-Dec-09 16:28 062 18.3
2016-Dec-09 16:08 007 18.3
2016-Dec-09 15:38 18.3
2016-Dec-09 15:28 18.3
2016-Dec-09 14:58 353 5 gusting 7 18.3
2016-Dec-09 14:48 037 4 gusting 10 18.3
2016-Dec-09 14:28 007 4 gusting 7 18.3
2016-Dec-09 14:18 18.9
2016-Dec-09 14:08 001 4 gusting 7 18.9
2016-Dec-09 13:58 020 5 gusting 8 18.9
2016-Dec-09 13:48 045 5 gusting 7 18.9
2016-Dec-09 13:18 048 4 gusting 7 18.9
2016-Dec-09 12:58 012 5 gusting 8 18.9
2016-Dec-09 12:48 002 5 gusting 8 18.9
2016-Dec-09 12:38 023 4 gusting 12 18.9
2016-Dec-09 12:28 033 6 gusting 10 18.9
2016-Dec-09 12:08 023 4 gusting 11 18.9
2016-Dec-09 11:58 017 5 gusting 11 18.9
2016-Dec-09 11:48 028 4 gusting 11 18.9
2016-Dec-09 11:38 024 6 gusting 10 18.9
2016-Dec-09 11:18 034 7 gusting 11 18.9
2016-Dec-09 10:48 041 6 gusting 10 18.9
2016-Dec-09 10:38 017 4 gusting 13 18.9
2016-Dec-09 10:28 042 6 gusting 13 18.9
2016-Dec-09 10:18 019 2 gusting 10 18.9
2016-Dec-09 09:58 054 4 gusting 6 18.9
2016-Dec-09 09:48 023 6 gusting 10 18.9
2016-Dec-09 09:28 006 5 gusting 8 18.9
2016-Dec-09 09:18 061 4 gusting 10 18.9
2016-Dec-09 09:08 038 6 gusting 10 18.9
2016-Dec-09 08:58 010 6 gusting 8 18.9
2016-Dec-09 08:48 037 6 gusting 11 18.9
2016-Dec-09 08:38 025 6 gusting 11 18.9
2016-Dec-09 07:58 030 6 gusting 13 18.9
2016-Dec-09 07:38 016 5 gusting 8 19.4
2016-Dec-09 07:08 021 6 gusting 12 20.0
2016-Dec-09 06:58 012 5 gusting 11 20.0
2016-Dec-09 06:28 019 6 gusting 13 20.6
2016-Dec-09 06:18 020 7 gusting 13 20.6
2016-Dec-09 05:48 016 9 gusting 15 20.6
2016-Dec-09 05:28 027 8 gusting 14 21.1
2016-Dec-09 05:18 032 7 gusting 15 21.7
2016-Dec-09 05:08 042 7 gusting 17 21.7
2016-Dec-09 04:58 029 9 gusting 14 21.7
2016-Dec-09 04:48 027 9 gusting 14 21.7
2016-Dec-09 04:28 016 11 gusting 14 21.7
2016-Dec-09 04:08 043 9 gusting 14 21.7
2016-Dec-09 03:58 015 11 gusting 17 22.2
2016-Dec-09 03:38 008 8 gusting 15 22.2
2016-Dec-09 03:28 036 8 gusting 14 22.8
2016-Dec-09 03:18 010 8 gusting 14 22.8
2016-Dec-09 03:08 018 9 gusting 14 22.8
2016-Dec-09 02:58 030 8 gusting 13 23.9
2016-Dec-09 02:48 050 8 gusting 12 23.9
2016-Dec-09 02:18 027 10 gusting 14 23.3
2016-Dec-09 02:08 057 6 gusting 14 23.3
2016-Dec-09 01:58 055 11 gusting 14 24.4
2016-Dec-09 01:48 012 10 gusting 13 23.9
2016-Dec-09 01:38 015 8 gusting 13 23.3
2016-Dec-09 01:18 056 9 gusting 13 23.3
2016-Dec-09 00:58 026 6 gusting 12 23.9
2016-Dec-09 00:48 028 6 gusting 13 24.4
2016-Dec-09 00:38 027 6 gusting 12 23.9
2016-Dec-09 00:28 343 7 gusting 13 24.4
2016-Dec-09 00:18 051 5 gusting 8 25.0
2016-Dec-08 23:58 072 5 gusting 7 23.9
2016-Dec-08 23:28 23.9
2016-Dec-08 23:18 324 23.9
2016-Dec-08 23:08 008 23.9
2016-Dec-08 22:58 018 23.9
2016-Dec-08 22:48 347 23.3
2016-Dec-08 22:38 091 21.7
2016-Dec-08 21:58 102 20.6
2016-Dec-08 21:48 344 19.4
2016-Dec-08 21:38 343 19.4
2016-Dec-08 21:28 19.4
2016-Dec-08 21:18 325 18.9
2016-Dec-08 20:58 087 18.3
2016-Dec-08 20:28 086 18.3
2016-Dec-08 20:18 084 17.8
2016-Dec-08 20:08 085 17.8
2016-Dec-08 19:58 117 17.8
2016-Dec-08 19:48 066 17.8
2016-Dec-08 19:38 061 17.8
2016-Dec-08 19:18 076 17.2
2016-Dec-08 18:58 220 17.2
2016-Dec-08 18:38 219 16.7
2016-Dec-08 18:28 219 16.7
2016-Dec-08 18:08 217 16.1
2016-Dec-08 17:58 217 16.1
2016-Dec-08 17:38 218 15.6
2016-Dec-08 17:28 290 15.6
2016-Dec-08 17:18 217 15.0
2016-Dec-08 17:08 220 15.0
2016-Dec-08 16:48 210 14.4
2016-Dec-08 16:38 212 14.4
2016-Dec-08 16:28 210 14.4
2016-Dec-08 16:08 209 14.4
2016-Dec-08 15:48 212 15.0
2016-Dec-08 15:38 211 15.0
2016-Dec-08 15:28 208 15.6
2016-Dec-08 15:18 210 15.6
2016-Dec-08 15:08 220 15.6
2016-Dec-08 14:48 214 15.6
2016-Dec-08 14:38 210 16.1
2016-Dec-08 14:28 211 16.1
2016-Dec-08 14:18 204 16.1
2016-Dec-08 14:08 204 16.1
2016-Dec-08 13:58 204 16.1
2016-Dec-08 13:48 205 16.7
2016-Dec-08 13:38 206 16.7
2016-Dec-08 13:28 206 16.7
2016-Dec-08 13:18 224 16.7
2016-Dec-08 12:18 290 16.1
2016-Dec-08 11:38 283 16.1
2016-Dec-08 11:28 284 16.1
2016-Dec-08 11:08 303 16.1
2016-Dec-08 10:58 292 16.7
2016-Dec-08 10:48 288 16.7
2016-Dec-08 10:28 284 16.7
2016-Dec-08 10:18 283 16.7